sensor_id;sensor_type;location;lat;lon;timestamp;temperature;humidity
43249;DHT22;29216;51.248;6.808;2023-03-01T00:01:14;0.20;96.80
43249;DHT22;29216;51.248;6.808;2023-03-01T00:03:39;0.20;96.40
43249;DHT22;29216;51.248;6.808;2023-03-01T00:06:06;0.20;95.50
43249;DHT22;29216;51.248;6.808;2023-03-01T00:08:33;0.10;93.80
43249;DHT22;29216;51.248;6.808;2023-03-01T00:11:05;0.10;91.80
43249;DHT22;29216;51.248;6.808;2023-03-01T00:13:32;0.00;89.60
43249;DHT22;29216;51.248;6.808;2023-03-01T00:15:58;0.00;88.20
43249;DHT22;29216;51.248;6.808;2023-03-01T00:18:24;0.00;89.40
43249;DHT22;29216;51.248;6.808;2023-03-01T00:20:54;-0.10;85.00
43249;DHT22;29216;51.248;6.808;2023-03-01T00:23:20;-0.10;87.90
43249;DHT22;29216;51.248;6.808;2023-03-01T00:25:46;-0.10;42.10
43249;DHT22;29216;51.248;6.808;2023-03-01T00:28:12;-0.10;33.20
43249;DHT22;29216;51.248;6.808;2023-03-01T00:30:38;-0.30;41.80
43249;DHT22;29216;51.248;6.808;2023-03-01T00:33:03;-0.30;35.70
43249;DHT22;29216;51.248;6.808;2023-03-01T00:35:29;-0.30;37.70
43249;DHT22;29216;51.248;6.808;2023-03-01T00:37:59;-0.30;22.60
43249;DHT22;29216;51.248;6.808;2023-03-01T00:40:25;-0.30;17.20
43249;DHT22;29216;51.248;6.808;2023-03-01T00:42:51;-0.30;16.40
43249;DHT22;29216;51.248;6.808;2023-03-01T00:45:17;-0.40;13.80
43249;DHT22;29216;51.248;6.808;2023-03-01T00:47:43;-0.40;16.10
43249;DHT22;29216;51.248;6.808;2023-03-01T00:50:09;-0.50;9.90
43249;DHT22;29216;51.248;6.808;2023-03-01T00:52:35;-0.60;8.70
43249;DHT22;29216;51.248;6.808;2023-03-01T00:55:01;-0.60;7.90
43249;DHT22;29216;51.248;6.808;2023-03-01T00:57:27;-0.60;5.10
43249;DHT22;29216;51.248;6.808;2023-03-01T00:59:52;-0.60;1.00
43249;DHT22;29216;51.248;6.808;2023-03-01T01:02:19;-0.60;1.00
43249;DHT22;29216;51.248;6.808;2023-03-01T01:04:46;-0.70;1.00
43249;DHT22;29216;51.248;6.808;2023-03-01T01:07:12;-0.70;1.00
43249;DHT22;29216;51.248;6.808;2023-03-01T01:09:38;-0.80;1.00
43249;DHT22;29216;51.248;6.808;2023-03-01T01:12:04;-0.90;1.00
43249;DHT22;29216;51.248;6.808;2023-03-01T01:14:30;-0.80;1.00
43249;DHT22;29216;51.248;6.808;2023-03-01T01:16:56;-0.80;1.00
43249;DHT22;29216;51.248;6.808;2023-03-01T01:19:22;-0.70;1.00
43249;DHT22;29216;51.248;6.808;2023-03-01T01:21:48;-0.70;1.00
43249;DHT22;29216;51.248;6.808;2023-03-01T01:24:14;-0.60;1.00
43249;DHT22;29216;51.248;6.808;2023-03-01T01:26:41;-0.50;1.00
43249;DHT22;29216;51.248;6.808;2023-03-01T01:29:07;-0.60;1.00
43249;DHT22;29216;51.248;6.808;2023-03-01T01:31:34;-0.70;1.00
43249;DHT22;29216;51.248;6.808;2023-03-01T01:34:02;-0.70;1.00
43249;DHT22;29216;51.248;6.808;2023-03-01T01:36:28;-0.60;1.00
43249;DHT22;29216;51.248;6.808;2023-03-01T01:38:54;-0.50;1.00
43249;DHT22;29216;51.248;6.808;2023-03-01T01:41:20;-0.50;1.00
43249;DHT22;29216;51.248;6.808;2023-03-01T01:43:49;-0.50;1.00
43249;DHT22;29216;51.248;6.808;2023-03-01T01:46:32;-0.60;1.00
43249;DHT22;29216;51.248;6.808;2023-03-01T01:49:07;-0.70;1.00
43249;DHT22;29216;51.248;6.808;2023-03-01T01:51:40;-0.80;1.00
43249;DHT22;29216;51.248;6.808;2023-03-01T01:54:15;-0.80;1.00
43249;DHT22;29216;51.248;6.808;2023-03-01T01:56:45;-0.80;1.00
43249;DHT22;29216;51.248;6.808;2023-03-01T01:59:13;-0.90;1.00
43249;DHT22;29216;51.248;6.808;2023-03-01T02:01:39;-0.90;1.00
43249;DHT22;29216;51.248;6.808;2023-03-01T02:04:05;-1.00;3.00
43249;DHT22;29216;51.248;6.808;2023-03-01T02:06:39;-1.00;9.20
43249;DHT22;29216;51.248;6.808;2023-03-01T02:09:11;-0.90;14.10
43249;DHT22;29216;51.248;6.808;2023-03-01T02:11:37;-0.70;1.00
43249;DHT22;29216;51.248;6.808;2023-03-01T02:14:03;-0.70;1.00
43249;DHT22;29216;51.248;6.808;2023-03-01T02:16:29;-0.80;1.00
43249;DHT22;29216;51.248;6.808;2023-03-01T02:18:56;-0.90;1.00
43249;DHT22;29216;51.248;6.808;2023-03-01T02:27:37;-1.00;1.00
43249;DHT22;29216;51.248;6.808;2023-03-01T02:30:05;-1.00;1.00
43249;DHT22;29216;51.248;6.808;2023-03-01T02:32:32;-1.00;1.00
43249;DHT22;29216;51.248;6.808;2023-03-01T02:34:57;-1.00;1.00
43249;DHT22;29216;51.248;6.808;2023-03-01T02:37:24;-1.00;1.00
43249;DHT22;29216;51.248;6.808;2023-03-01T02:40:01;-1.10;1.00
43249;DHT22;29216;51.248;6.808;2023-03-01T02:42:35;-1.10;1.00
43249;DHT22;29216;51.248;6.808;2023-03-01T02:45:02;-1.10;1.00
43249;DHT22;29216;51.248;6.808;2023-03-01T02:47:28;-1.10;1.20
43249;DHT22;29216;51.248;6.808;2023-03-01T02:49:54;-1.00;5.60
43249;DHT22;29216;51.248;6.808;2023-03-01T02:55:11;-0.80;1.00
43249;DHT22;29216;51.248;6.808;2023-03-01T02:57:40;-0.80;1.00
43249;DHT22;29216;51.248;6.808;2023-03-01T03:00:32;-0.90;1.00
43249;DHT22;29216;51.248;6.808;2023-03-01T03:02:59;-1.00;1.00
43249;DHT22;29216;51.248;6.808;2023-03-01T03:05:28;-1.10;1.00
43249;DHT22;29216;51.248;6.808;2023-03-01T03:07:54;-1.10;1.00
43249;DHT22;29216;51.248;6.808;2023-03-01T03:10:22;-1.10;1.00
43249;DHT22;29216;51.248;6.808;2023-03-01T03:12:52;-1.10;1.00
43249;DHT22;29216;51.248;6.808;2023-03-01T03:15:19;-1.20;1.00
43249;DHT22;29216;51.248;6.808;2023-03-01T03:17:46;-1.30;1.00
43249;DHT22;29216;51.248;6.808;2023-03-01T03:20:14;-1.40;1.00
43249;DHT22;29216;51.248;6.808;2023-03-01T03:22:45;-1.30;1.00
43249;DHT22;29216;51.248;6.808;2023-03-01T03:25:10;-1.30;1.00
43249;DHT22;29216;51.248;6.808;2023-03-01T03:27:39;-1.40;1.00
43249;DHT22;29216;51.248;6.808;2023-03-01T03:30:07;-1.40;11.90
43249;DHT22;29216;51.248;6.808;2023-03-01T03:32:38;-1.40;5.80
43249;DHT22;29216;51.248;6.808;2023-03-01T03:35:04;-1.50;2.60
43249;DHT22;29216;51.248;6.808;2023-03-01T03:37:41;-1.50;5.70
43249;DHT22;29216;51.248;6.808;2023-03-01T03:40:26;-1.40;1.00
43249;DHT22;29216;51.248;6.808;2023-03-01T03:42:51;-1.40;1.00
43249;DHT22;29216;51.248;6.808;2023-03-01T03:45:17;-1.30;1.00
43249;DHT22;29216;51.248;6.808;2023-03-01T03:47:43;-1.30;1.00
43249;DHT22;29216;51.248;6.808;2023-03-01T03:50:11;-1.30;1.00
43249;DHT22;29216;51.248;6.808;2023-03-01T03:52:37;-1.20;1.00
43249;DHT22;29216;51.248;6.808;2023-03-01T03:55:03;-1.20;1.00
43249;DHT22;29216;51.248;6.808;2023-03-01T03:57:29;-1.30;1.00
43249;DHT22;29216;51.248;6.808;2023-03-01T03:59:54;-1.40;1.00
43249;DHT22;29216;51.248;6.808;2023-03-01T04:02:20;-1.50;1.00
43249;DHT22;29216;51.248;6.808;2023-03-01T04:04:48;-1.60;1.00
43249;DHT22;29216;51.248;6.808;2023-03-01T04:07:17;-1.60;1.00
43249;DHT22;29216;51.248;6.808;2023-03-01T04:09:44;-1.60;1.00
43249;DHT22;29216;51.248;6.808;2023-03-01T04:12:10;-1.50;10.90
43249;DHT22;29216;51.248;6.808;2023-03-01T04:14:36;-1.50;3.20
43249;DHT22;29216;51.248;6.808;2023-03-01T04:17:01;-1.50;11.50
43249;DHT22;29216;51.248;6.808;2023-03-01T04:19:33;-1.50;4.30
43249;DHT22;29216;51.248;6.808;2023-03-01T04:22:02;-1.40;1.00
43249;DHT22;29216;51.248;6.808;2023-03-01T04:24:35;-1.40;1.00
43249;DHT22;29216;51.248;6.808;2023-03-01T04:27:00;-1.50;1.00
43249;DHT22;29216;51.248;6.808;2023-03-01T04:29:26;-1.40;1.00
43249;DHT22;29216;51.248;6.808;2023-03-01T04:31:52;-1.50;1.00
43249;DHT22;29216;51.248;6.808;2023-03-01T04:34:18;-1.50;1.00
43249;DHT22;29216;51.248;6.808;2023-03-01T04:36:43;-1.60;1.00
43249;DHT22;29216;51.248;6.808;2023-03-01T04:39:09;-1.60;1.00
43249;DHT22;29216;51.248;6.808;2023-03-01T04:41:37;-1.60;1.00
43249;DHT22;29216;51.248;6.808;2023-03-01T04:44:04;-1.60;1.00
43249;DHT22;29216;51.248;6.808;2023-03-01T04:46:30;-1.60;1.00
43249;DHT22;29216;51.248;6.808;2023-03-01T04:48:56;-1.60;1.00
43249;DHT22;29216;51.248;6.808;2023-03-01T04:51:21;-1.60;1.00
43249;DHT22;29216;51.248;6.808;2023-03-01T04:53:47;-1.50;1.00
43249;DHT22;29216;51.248;6.808;2023-03-01T04:56:13;-1.40;1.00
43249;DHT22;29216;51.248;6.808;2023-03-01T04:58:39;-1.40;1.00
43249;DHT22;29216;51.248;6.808;2023-03-01T05:01:16;-1.40;1.00
43249;DHT22;29216;51.248;6.808;2023-03-01T05:03:50;-1.50;1.00
43249;DHT22;29216;51.248;6.808;2023-03-01T05:06:20;-1.50;1.00
43249;DHT22;29216;51.248;6.808;2023-03-01T05:08:46;-1.50;1.00
43249;DHT22;29216;51.248;6.808;2023-03-01T05:11:11;-1.60;1.00
43249;DHT22;29216;51.248;6.808;2023-03-01T05:13:38;-1.60;1.00
43249;DHT22;29216;51.248;6.808;2023-03-01T05:16:06;-1.60;1.00
43249;DHT22;29216;51.248;6.808;2023-03-01T05:18:33;-1.60;1.00
43249;DHT22;29216;51.248;6.808;2023-03-01T05:21:07;-1.60;1.00
43249;DHT22;29216;51.248;6.808;2023-03-01T05:23:33;-1.70;1.00
43249;DHT22;29216;51.248;6.808;2023-03-01T05:26:00;-1.70;1.00
43249;DHT22;29216;51.248;6.808;2023-03-01T05:28:27;-1.80;1.00
43249;DHT22;29216;51.248;6.808;2023-03-01T05:30:54;-1.80;1.00
43249;DHT22;29216;51.248;6.808;2023-03-01T05:33:19;-1.90;1.00
43249;DHT22;29216;51.248;6.808;2023-03-01T05:35:47;-2.00;1.00
43249;DHT22;29216;51.248;6.808;2023-03-01T05:38:13;-2.00;1.00
43249;DHT22;29216;51.248;6.808;2023-03-01T05:40:41;-2.00;5.70
43249;DHT22;29216;51.248;6.808;2023-03-01T05:43:06;-1.90;20.80
43249;DHT22;29216;51.248;6.808;2023-03-01T05:45:32;-1.80;8.90
43249;DHT22;29216;51.248;6.808;2023-03-01T05:48:00;-1.90;1.00
43249;DHT22;29216;51.248;6.808;2023-03-01T05:50:28;-1.90;5.30
43249;DHT22;29216;51.248;6.808;2023-03-01T05:55:23;-1.80;1.00
43249;DHT22;29216;51.248;6.808;2023-03-01T05:57:49;-1.80;1.00
43249;DHT22;29216;51.248;6.808;2023-03-01T06:00:17;-1.80;1.00
43249;DHT22;29216;51.248;6.808;2023-03-01T06:02:44;-1.80;1.00
43249;DHT22;29216;51.248;6.808;2023-03-01T06:05:11;-1.80;1.00
43249;DHT22;29216;51.248;6.808;2023-03-01T06:07:37;-1.70;1.00
43249;DHT22;29216;51.248;6.808;2023-03-01T06:10:04;-1.50;1.00
43249;DHT22;29216;51.248;6.808;2023-03-01T06:12:32;-1.50;1.00
43249;DHT22;29216;51.248;6.808;2023-03-01T06:14:58;-1.40;1.00
43249;DHT22;29216;51.248;6.808;2023-03-01T06:17:24;-1.30;1.00
43249;DHT22;29216;51.248;6.808;2023-03-01T06:19:49;-1.30;1.00
43249;DHT22;29216;51.248;6.808;2023-03-01T06:22:15;-1.20;1.00
43249;DHT22;29216;51.248;6.808;2023-03-01T06:24:41;-1.10;1.00
43249;DHT22;29216;51.248;6.808;2023-03-01T06:27:06;-1.10;1.00
43249;DHT22;29216;51.248;6.808;2023-03-01T06:29:32;-1.10;1.00
43249;DHT22;29216;51.248;6.808;2023-03-01T06:31:57;-1.00;1.00
43249;DHT22;29216;51.248;6.808;2023-03-01T06:34:23;-1.00;1.00
43249;DHT22;29216;51.248;6.808;2023-03-01T06:36:48;-1.00;1.00
43249;DHT22;29216;51.248;6.808;2023-03-01T06:39:14;-0.90;1.00
43249;DHT22;29216;51.248;6.808;2023-03-01T06:41:40;-0.90;1.00
43249;DHT22;29216;51.248;6.808;2023-03-01T06:44:05;-0.90;1.00
43249;DHT22;29216;51.248;6.808;2023-03-01T06:46:31;-0.80;1.00
43249;DHT22;29216;51.248;6.808;2023-03-01T06:48:56;-0.80;1.00
43249;DHT22;29216;51.248;6.808;2023-03-01T06:51:22;-0.80;1.00
43249;DHT22;29216;51.248;6.808;2023-03-01T06:53:48;-0.70;1.00
43249;DHT22;29216;51.248;6.808;2023-03-01T06:56:13;-0.60;1.00
43249;DHT22;29216;51.248;6.808;2023-03-01T06:58:39;-0.60;1.00
43249;DHT22;29216;51.248;6.808;2023-03-01T07:01:08;-0.40;1.00
43249;DHT22;29216;51.248;6.808;2023-03-01T07:03:34;-0.40;1.00
43249;DHT22;29216;51.248;6.808;2023-03-01T07:05:59;-0.20;1.00
43249;DHT22;29216;51.248;6.808;2023-03-01T07:08:25;-0.20;1.00
43249;DHT22;29216;51.248;6.808;2023-03-01T07:10:58;-0.10;1.00
43249;DHT22;29216;51.248;6.808;2023-03-01T07:13:24;0.10;1.00
43249;DHT22;29216;51.248;6.808;2023-03-01T07:15:50;0.40;1.00
43249;DHT22;29216;51.248;6.808;2023-03-01T07:18:15;1.40;1.00
43249;DHT22;29216;51.248;6.808;2023-03-01T07:20:41;2.70;1.00
43249;DHT22;29216;51.248;6.808;2023-03-01T07:23:07;3.80;18.30
43249;DHT22;29216;51.248;6.808;2023-03-01T07:25:33;4.50;44.00
43249;DHT22;29216;51.248;6.808;2023-03-01T07:27:59;5.40;68.60
43249;DHT22;29216;51.248;6.808;2023-03-01T07:30:24;6.30;69.60
43249;DHT22;29216;51.248;6.808;2023-03-01T07:32:57;7.00;72.40
43249;DHT22;29216;51.248;6.808;2023-03-01T07:35:25;7.40;83.00
43249;DHT22;29216;51.248;6.808;2023-03-01T07:37:51;7.70;78.60
43249;DHT22;29216;51.248;6.808;2023-03-01T07:40:17;7.90;82.60
43249;DHT22;29216;51.248;6.808;2023-03-01T07:42:42;8.20;83.70
43249;DHT22;29216;51.248;6.808;2023-03-01T07:45:08;8.30;81.60
43249;DHT22;29216;51.248;6.808;2023-03-01T07:47:34;8.60;83.30
43249;DHT22;29216;51.248;6.808;2023-03-01T07:50:00;8.80;83.10
43249;DHT22;29216;51.248;6.808;2023-03-01T07:52:26;8.60;79.30
43249;DHT22;29216;51.248;6.808;2023-03-01T07:54:52;9.00;80.20
43249;DHT22;29216;51.248;6.808;2023-03-01T07:57:18;9.20;78.50
43249;DHT22;29216;51.248;6.808;2023-03-01T07:59:43;9.60;79.10
43249;DHT22;29216;51.248;6.808;2023-03-01T08:02:11;9.60;79.00
43249;DHT22;29216;51.248;6.808;2023-03-01T08:04:37;9.70;72.80
43249;DHT22;29216;51.248;6.808;2023-03-01T08:07:05;9.80;69.50
43249;DHT22;29216;51.248;6.808;2023-03-01T08:09:30;9.40;70.30
43249;DHT22;29216;51.248;6.808;2023-03-01T08:11:57;9.80;72.40
43249;DHT22;29216;51.248;6.808;2023-03-01T08:14:25;10.40;68.30
43249;DHT22;29216;51.248;6.808;2023-03-01T08:16:50;9.90;68.30
43249;DHT22;29216;51.248;6.808;2023-03-01T08:19:16;9.90;68.00
43249;DHT22;29216;51.248;6.808;2023-03-01T08:21:42;9.70;67.60
43249;DHT22;29216;51.248;6.808;2023-03-01T08:24:08;9.80;68.30
43249;DHT22;29216;51.248;6.808;2023-03-01T08:26:36;9.60;68.70
43249;DHT22;29216;51.248;6.808;2023-03-01T08:29:02;9.80;68.10
43249;DHT22;29216;51.248;6.808;2023-03-01T08:33:56;9.00;68.70
43249;DHT22;29216;51.248;6.808;2023-03-01T08:36:24;7.50;71.80
43249;DHT22;29216;51.248;6.808;2023-03-01T08:38:50;6.10;79.70
43249;DHT22;29216;51.248;6.808;2023-03-01T08:41:16;5.10;87.60
43249;DHT22;29216;51.248;6.808;2023-03-01T08:43:42;4.50;92.40
43249;DHT22;29216;51.248;6.808;2023-03-01T08:46:08;4.20;93.90
43249;DHT22;29216;51.248;6.808;2023-03-01T08:48:34;3.90;96.60
43249;DHT22;29216;51.248;6.808;2023-03-01T08:51:13;3.70;97.90
43249;DHT22;29216;51.248;6.808;2023-03-01T08:53:40;3.50;99.60
43249;DHT22;29216;51.248;6.808;2023-03-01T08:56:07;3.40;99.90
43249;DHT22;29216;51.248;6.808;2023-03-01T08:58:33;3.30;99.90
43249;DHT22;29216;51.248;6.808;2023-03-01T09:01:01;3.40;99.90
43249;DHT22;29216;51.248;6.808;2023-03-01T09:03:31;3.50;99.90
43249;DHT22;29216;51.248;6.808;2023-03-01T09:06:00;3.50;99.90
43249;DHT22;29216;51.248;6.808;2023-03-01T09:08:27;3.40;99.90
43249;DHT22;29216;51.248;6.808;2023-03-01T09:10:52;3.40;99.90
43249;DHT22;29216;51.248;6.808;2023-03-01T09:13:18;3.50;99.90
43249;DHT22;29216;51.248;6.808;2023-03-01T09:15:44;3.40;99.90
43249;DHT22;29216;51.248;6.808;2023-03-01T09:18:09;3.40;99.90
43249;DHT22;29216;51.248;6.808;2023-03-01T09:20:35;3.30;99.90
43249;DHT22;29216;51.248;6.808;2023-03-01T09:23:03;3.30;99.90
43249;DHT22;29216;51.248;6.808;2023-03-01T09:25:29;3.30;99.90
43249;DHT22;29216;51.248;6.808;2023-03-01T09:27:54;3.30;99.90
43249;DHT22;29216;51.248;6.808;2023-03-01T09:30:21;3.40;99.90
43249;DHT22;29216;51.248;6.808;2023-03-01T09:32:47;3.50;99.90
43249;DHT22;29216;51.248;6.808;2023-03-01T09:35:12;3.60;99.90
43249;DHT22;29216;51.248;6.808;2023-03-01T09:37:38;3.50;99.90
43249;DHT22;29216;51.248;6.808;2023-03-01T09:40:16;3.60;99.90
43249;DHT22;29216;51.248;6.808;2023-03-01T09:43:33;3.70;99.90
43249;DHT22;29216;51.248;6.808;2023-03-01T09:45:56;3.70;99.90
43249;DHT22;29216;51.248;6.808;2023-03-01T09:48:27;3.60;99.90
43249;DHT22;29216;51.248;6.808;2023-03-01T09:50:56;3.60;99.90
43249;DHT22;29216;51.248;6.808;2023-03-01T09:53:29;3.70;99.80
43249;DHT22;29216;51.248;6.808;2023-03-01T10:01:50;3.90;99.60
43249;DHT22;29216;51.248;6.808;2023-03-01T10:04:48;3.80;99.70
43249;DHT22;29216;51.248;6.808;2023-03-01T10:10:07;3.90;99.90
43249;DHT22;29216;51.248;6.808;2023-03-01T10:12:40;4.00;99.90
43249;DHT22;29216;51.248;6.808;2023-03-01T10:15:09;4.00;99.90
43249;DHT22;29216;51.248;6.808;2023-03-01T10:17:57;4.10;99.70
43249;DHT22;29216;51.248;6.808;2023-03-01T10:20:25;4.00;99.90
43249;DHT22;29216;51.248;6.808;2023-03-01T10:22:52;4.10;98.60
43249;DHT22;29216;51.248;6.808;2023-03-01T10:29:04;4.10;99.00
43249;DHT22;29216;51.248;6.808;2023-03-01T10:31:39;4.20;98.90
43249;DHT22;29216;51.248;6.808;2023-03-01T10:36:41;4.20;98.10
43249;DHT22;29216;51.248;6.808;2023-03-01T10:39:16;4.20;98.30
43249;DHT22;29216;51.248;6.808;2023-03-01T10:42:13;4.20;98.30
43249;DHT22;29216;51.248;6.808;2023-03-01T10:44:47;4.30;98.50
43249;DHT22;29216;51.248;6.808;2023-03-01T10:47:25;4.40;99.10
43249;DHT22;29216;51.248;6.808;2023-03-01T10:50:01;4.50;98.40
43249;DHT22;29216;51.248;6.808;2023-03-01T10:52:32;4.60;97.50
43249;DHT22;29216;51.248;6.808;2023-03-01T10:55:02;4.60;97.00
43249;DHT22;29216;51.248;6.808;2023-03-01T10:57:34;4.50;97.50
43249;DHT22;29216;51.248;6.808;2023-03-01T11:00:25;4.50;97.70
43249;DHT22;29216;51.248;6.808;2023-03-01T11:03:11;4.60;96.90
43249;DHT22;29216;51.248;6.808;2023-03-01T11:06:00;4.60;96.90
43249;DHT22;29216;51.248;6.808;2023-03-01T11:08:46;4.70;97.00
43249;DHT22;29216;51.248;6.808;2023-03-01T11:16:33;4.90;96.10
43249;DHT22;29216;51.248;6.808;2023-03-01T11:21:31;5.00;95.80
43249;DHT22;29216;51.248;6.808;2023-03-01T11:24:00;5.00;96.10
43249;DHT22;29216;51.248;6.808;2023-03-01T11:26:28;5.00;95.30
43249;DHT22;29216;51.248;6.808;2023-03-01T11:28:58;5.00;95.40
43249;DHT22;29216;51.248;6.808;2023-03-01T11:31:26;5.00;94.80
43249;DHT22;29216;51.248;6.808;2023-03-01T11:33:59;5.00;95.00
43249;DHT22;29216;51.248;6.808;2023-03-01T11:36:35;5.10;94.70
43249;DHT22;29216;51.248;6.808;2023-03-01T11:41:48;5.10;94.80
43249;DHT22;29216;51.248;6.808;2023-03-01T11:44:21;5.10;94.30
43249;DHT22;29216;51.248;6.808;2023-03-01T11:52:22;5.20;93.40
43249;DHT22;29216;51.248;6.808;2023-03-01T11:58:14;5.30;93.70
43249;DHT22;29216;51.248;6.808;2023-03-01T12:00:54;5.40;93.10
43249;DHT22;29216;51.248;6.808;2023-03-01T12:08:45;5.40;92.00
43249;DHT22;29216;51.248;6.808;2023-03-01T12:13:59;5.50;92.00
43249;DHT22;29216;51.248;6.808;2023-03-01T12:33:00;5.80;92.70
43249;DHT22;29216;51.248;6.808;2023-03-01T12:41:40;6.00;92.80
43249;DHT22;29216;51.248;6.808;2023-03-01T12:47:00;5.90;92.30
43249;DHT22;29216;51.248;6.808;2023-03-01T12:49:40;5.90;92.60
43249;DHT22;29216;51.248;6.808;2023-03-01T12:52:22;5.90;92.80
43249;DHT22;29216;51.248;6.808;2023-03-01T12:54:49;5.90;92.30
43249;DHT22;29216;51.248;6.808;2023-03-01T13:02:58;6.10;92.50
43249;DHT22;29216;51.248;6.808;2023-03-01T13:08:39;6.10;91.40
43249;DHT22;29216;51.248;6.808;2023-03-01T13:11:17;6.10;91.00
43249;DHT22;29216;51.248;6.808;2023-03-01T13:13:43;6.10;91.20
43249;DHT22;29216;51.248;6.808;2023-03-01T13:16:21;6.20;90.60
43249;DHT22;29216;51.248;6.808;2023-03-01T13:18:48;6.20;90.10
43249;DHT22;29216;51.248;6.808;2023-03-01T13:21:29;6.30;90.20
43249;DHT22;29216;51.248;6.808;2023-03-01T13:23:55;6.30;90.00
43249;DHT22;29216;51.248;6.808;2023-03-01T13:26:21;6.30;88.10
43249;DHT22;29216;51.248;6.808;2023-03-01T13:28:57;6.30;90.10
43249;DHT22;29216;51.248;6.808;2023-03-01T13:33:59;6.40;90.00
43249;DHT22;29216;51.248;6.808;2023-03-01T13:39:04;6.40;87.90
43249;DHT22;29216;51.248;6.808;2023-03-01T13:52:50;6.50;89.40
43249;DHT22;29216;51.248;6.808;2023-03-01T13:57:49;6.50;88.80
43249;DHT22;29216;51.248;6.808;2023-03-01T14:00:39;6.60;89.30
43249;DHT22;29216;51.248;6.808;2023-03-01T14:03:18;6.60;87.90
43249;DHT22;29216;51.248;6.808;2023-03-01T14:09:15;6.60;88.00
43249;DHT22;29216;51.248;6.808;2023-03-01T14:12:13;6.50;89.60
43249;DHT22;29216;51.248;6.808;2023-03-01T14:17:52;6.60;90.10
43249;DHT22;29216;51.248;6.808;2023-03-01T14:20:25;6.50;90.30
43249;DHT22;29216;51.248;6.808;2023-03-01T14:22:59;6.50;90.70
43249;DHT22;29216;51.248;6.808;2023-03-01T14:25:29;6.60;90.50
43249;DHT22;29216;51.248;6.808;2023-03-01T14:28:19;6.50;91.00
43249;DHT22;29216;51.248;6.808;2023-03-01T14:30:47;6.60;90.70
43249;DHT22;29216;51.248;6.808;2023-03-01T14:33:32;6.60;90.00
43249;DHT22;29216;51.248;6.808;2023-03-01T14:36:06;6.60;88.90
43249;DHT22;29216;51.248;6.808;2023-03-01T14:38:40;6.60;90.00
43249;DHT22;29216;51.248;6.808;2023-03-01T14:41:14;6.60;90.50
43249;DHT22;29216;51.248;6.808;2023-03-01T14:43:44;6.60;89.80
43249;DHT22;29216;51.248;6.808;2023-03-01T14:46:40;6.60;90.70
43249;DHT22;29216;51.248;6.808;2023-03-01T14:49:24;6.70;90.20
43249;DHT22;29216;51.248;6.808;2023-03-01T14:52:01;6.70;88.90
43249;DHT22;29216;51.248;6.808;2023-03-01T14:54:34;6.70;89.70
43249;DHT22;29216;51.248;6.808;2023-03-01T14:57:01;6.60;90.00
43249;DHT22;29216;51.248;6.808;2023-03-01T14:59:28;6.60;90.10
43249;DHT22;29216;51.248;6.808;2023-03-01T15:01:56;6.60;90.20
43249;DHT22;29216;51.248;6.808;2023-03-01T15:04:23;6.60;90.20
43249;DHT22;29216;51.248;6.808;2023-03-01T15:06:54;6.60;89.70
43249;DHT22;29216;51.248;6.808;2023-03-01T15:09:20;6.60;89.30
43249;DHT22;29216;51.248;6.808;2023-03-01T15:11:46;6.70;89.50
43249;DHT22;29216;51.248;6.808;2023-03-01T15:17:01;6.70;87.70
43249;DHT22;29216;51.248;6.808;2023-03-01T15:19:27;6.80;88.60
43249;DHT22;29216;51.248;6.808;2023-03-01T15:21:54;6.80;88.10
43249;DHT22;29216;51.248;6.808;2023-03-01T15:24:24;6.80;86.70
43249;DHT22;29216;51.248;6.808;2023-03-01T15:26:56;6.80;85.30
43249;DHT22;29216;51.248;6.808;2023-03-01T15:29:30;6.80;86.50
43249;DHT22;29216;51.248;6.808;2023-03-01T15:34:36;6.80;86.40
43249;DHT22;29216;51.248;6.808;2023-03-01T15:37:05;6.80;86.30
43249;DHT22;29216;51.248;6.808;2023-03-01T15:41:58;6.80;84.40
43249;DHT22;29216;51.248;6.808;2023-03-01T15:44:29;6.70;83.70
43249;DHT22;29216;51.248;6.808;2023-03-01T15:46:55;6.70;83.80
43249;DHT22;29216;51.248;6.808;2023-03-01T15:49:42;6.70;83.30
43249;DHT22;29216;51.248;6.808;2023-03-01T15:52:31;6.70;82.50
43249;DHT22;29216;51.248;6.808;2023-03-01T15:55:02;6.70;82.60
43249;DHT22;29216;51.248;6.808;2023-03-01T15:57:28;6.70;81.20
43249;DHT22;29216;51.248;6.808;2023-03-01T15:59:54;6.60;82.10
43249;DHT22;29216;51.248;6.808;2023-03-01T16:02:20;6.60;82.30
43249;DHT22;29216;51.248;6.808;2023-03-01T16:04:47;6.60;82.00
43249;DHT22;29216;51.248;6.808;2023-03-01T16:07:14;6.60;82.60
43249;DHT22;29216;51.248;6.808;2023-03-01T16:09:40;6.60;81.00
43249;DHT22;29216;51.248;6.808;2023-03-01T16:12:08;6.50;81.30
43249;DHT22;29216;51.248;6.808;2023-03-01T16:14:35;6.50;82.00
43249;DHT22;29216;51.248;6.808;2023-03-01T16:17:00;6.50;82.50
43249;DHT22;29216;51.248;6.808;2023-03-01T16:19:26;6.50;82.00
43249;DHT22;29216;51.248;6.808;2023-03-01T16:21:51;6.40;83.70
43249;DHT22;29216;51.248;6.808;2023-03-01T16:24:17;6.30;83.60
43249;DHT22;29216;51.248;6.808;2023-03-01T16:26:43;6.30;83.90
43249;DHT22;29216;51.248;6.808;2023-03-01T16:29:08;6.20;84.60
43249;DHT22;29216;51.248;6.808;2023-03-01T16:31:34;6.20;84.70
43249;DHT22;29216;51.248;6.808;2023-03-01T16:33:59;6.20;85.30
43249;DHT22;29216;51.248;6.808;2023-03-01T16:36:26;6.10;85.30
43249;DHT22;29216;51.248;6.808;2023-03-01T16:38:53;6.10;85.00
43249;DHT22;29216;51.248;6.808;2023-03-01T16:41:21;6.10;85.40
43249;DHT22;29216;51.248;6.808;2023-03-01T16:43:47;6.10;84.80
43249;DHT22;29216;51.248;6.808;2023-03-01T16:46:22;6.10;85.00
43249;DHT22;29216;51.248;6.808;2023-03-01T16:48:50;6.00;85.80
43249;DHT22;29216;51.248;6.808;2023-03-01T16:51:16;5.90;86.30
43249;DHT22;29216;51.248;6.808;2023-03-01T16:53:42;5.90;86.90
43249;DHT22;29216;51.248;6.808;2023-03-01T16:56:10;5.80;86.30
43249;DHT22;29216;51.248;6.808;2023-03-01T16:58:37;5.80;86.80
43249;DHT22;29216;51.248;6.808;2023-03-01T17:01:05;5.70;87.90
43249;DHT22;29216;51.248;6.808;2023-03-01T17:03:32;5.60;88.30
43249;DHT22;29216;51.248;6.808;2023-03-01T17:06:01;5.50;89.10
43249;DHT22;29216;51.248;6.808;2023-03-01T17:08:27;5.50;88.80
43249;DHT22;29216;51.248;6.808;2023-03-01T17:10:52;5.40;89.00
43249;DHT22;29216;51.248;6.808;2023-03-01T17:13:18;5.50;88.70
43249;DHT22;29216;51.248;6.808;2023-03-01T17:15:44;5.50;88.60
43249;DHT22;29216;51.248;6.808;2023-03-01T17:18:10;5.50;88.60
43249;DHT22;29216;51.248;6.808;2023-03-01T17:20:35;5.50;88.90
43249;DHT22;29216;51.248;6.808;2023-03-01T17:23:02;5.40;89.90
43249;DHT22;29216;51.248;6.808;2023-03-01T17:25:27;5.40;90.20
43249;DHT22;29216;51.248;6.808;2023-03-01T17:27:53;5.30;90.50
43249;DHT22;29216;51.248;6.808;2023-03-01T17:30:19;5.10;90.60
43249;DHT22;29216;51.248;6.808;2023-03-01T17:32:45;5.10;90.90
43249;DHT22;29216;51.248;6.808;2023-03-01T17:35:10;5.00;91.30
43249;DHT22;29216;51.248;6.808;2023-03-01T17:37:37;5.00;91.60
43249;DHT22;29216;51.248;6.808;2023-03-01T17:40:04;4.90;91.30
43249;DHT22;29216;51.248;6.808;2023-03-01T17:42:31;4.90;91.50
43249;DHT22;29216;51.248;6.808;2023-03-01T17:44:57;4.90;91.60
43249;DHT22;29216;51.248;6.808;2023-03-01T17:47:23;4.90;91.70
43249;DHT22;29216;51.248;6.808;2023-03-01T17:49:49;4.90;91.90
43249;DHT22;29216;51.248;6.808;2023-03-01T17:52:14;4.90;91.70
43249;DHT22;29216;51.248;6.808;2023-03-01T17:54:40;4.90;91.70
43249;DHT22;29216;51.248;6.808;2023-03-01T17:57:06;4.90;92.00
43249;DHT22;29216;51.248;6.808;2023-03-01T17:59:31;4.90;92.00